Flight Track Log - Related Links

Times and Time Zones

All times are in EDT time to prevent confusion due to time zone crossing. See the UAL326 flight status page for this flight to view local times or setup timezone preferences in your user account.

Time Position Orientation Groundspeed Altitude Reporting Facility
EDT Latitude Longitude Course Direction KTS MPH feet Rate Location/Type
Tue 02:10:26 PM 28.4500 -81.3167 355° North 154 177 700  Level Orlando TRACON
Tue 02:11:38 PM 28.5000 -81.3167 360° North 162 186 3,400 1,940 Climbing Orlando TRACON
Tue 02:12:39 PM 28.5667 -81.3167 360° North 267 307 5,000 2,598 Climbing Orlando TRACON
Tue 02:13:00 PM 28.7333 -81.3500 North  Level FlightAware Approximate
Tue 02:13:45 PM 28.6500 -81.3333 350° North 269 310 8,900  Level Orlando TRACON
Tue 02:14:00 PM 28.8421 -81.3509 355° North  Level FlightAware Approximate
Tue 02:15:00 PM 28.9505 -81.3617 355° North  Level FlightAware Approximate
Tue 02:16:03 PM 28.8356 -81.3544 354° North 329 379 12,800  Level Jacksonville Center
Tue 02:17:03 PM 28.9381 -81.3669 354° North 354 407 15,100 2,250 Climbing Jacksonville Center
Tue 02:18:03 PM 29.0406 -81.3822 353° North 370 426 17,300 1,800 Climbing Jacksonville Center
Tue 02:19:03 PM 29.1514 -81.3947 354° North 376 433 18,700 1,550 Climbing Jacksonville Center
Tue 02:20:03 PM 29.2619 -81.4025 356° North 387 445 20,400 1,400 Climbing Jacksonville Center
Tue 02:21:03 PM 29.3750 -81.4175 353° North 400 460 21,500 1,400 Climbing Jacksonville Center
Tue 02:22:03 PM 29.5006 -81.4586 344° North 410 472 23,200 1,500 Climbing Jacksonville Center
Tue 02:23:03 PM 29.6119 -81.5119 337° Northwest 422 486 24,500 1,140 Climbing Jacksonville Center
Tue 02:24:04 PM 29.7272 -81.5653 338° Northwest 435 501 25,500 1,300 Climbing Jacksonville Center
Tue 02:25:03 PM 29.8383 -81.6186 337° Northwest 435 501 27,100 1,462 Climbing Jacksonville Center
Tue 02:26:03 PM 29.9536 -81.6675 340° North 441 507 28,400 1,150 Climbing Jacksonville Center
Tue 02:27:03 PM 30.0692 -81.7214 338° Northwest 436 502 29,400 1,050 Climbing Jacksonville Center
Tue 02:28:03 PM 30.1944 -81.7317 356° North 436 502 30,500 1,200 Climbing Jacksonville Center
Tue 02:29:03 PM 30.3197 -81.7422 356° North 436 502 31,800 1,250 Climbing Jacksonville Center
Tue 02:30:03 PM 30.4406 -81.7167 10° North 448 516 33,000 1,300 Climbing Jacksonville Center
Tue 02:31:03 PM 30.5511 -81.6864 13° North 448 516 34,400 1,000 Climbing Jacksonville Center
Tue 02:32:03 PM 30.6697 -81.6511 14° North 436 502 35,000 300 Climbing Jacksonville Center
Tue 02:33:03 PM 30.7864 -81.6158 15° North 436 502 35,000  Level Jacksonville Center
Tue 02:34:03 PM 30.9028 -81.5803 15° North 430 495 35,000  Level Jacksonville Center
Tue 02:35:03 PM 31.0194 -81.5472 14° North 430 495 35,000  Level Jacksonville Center
Tue 02:36:03 PM 31.1339 -81.5117 15° North 430 495 35,000  Level Jacksonville Center
Tue 02:37:03 PM 31.2483 -81.4758 15° North 430 495 35,000  Level Jacksonville Center
Tue 02:38:03 PM 31.3667 -81.4231 21° North 425 489 35,000  Level Jacksonville Center
Tue 02:39:03 PM 31.4642 -81.3678 26° Northeast 420 483 35,000  Level Jacksonville Center
Tue 02:40:03 PM 31.5844 -81.3050 24° Northeast 420 483 35,000  Level Jacksonville Center
Tue 02:41:03 PM 31.6944 -81.2444 25° Northeast 425 489 35,000  Level Jacksonville Center
Tue 02:42:03 PM 31.7939 -81.1914 24° Northeast 430 495 35,000  Level Jacksonville Center
Tue 02:43:03 PM 31.9078 -81.1281 25° Northeast 435 501 35,000  Level Jacksonville Center
Tue 02:44:03 PM 32.0156 -81.0722 24° Northeast 435 501 35,000  Level Jacksonville Center
Tue 02:45:03 PM 32.1419 -81.0008 26° Northeast 444 511 35,000  Level Jacksonville Center
Tue 02:46:03 PM 32.2517 -80.9444 23° Northeast 434 499 35,000  Level Jacksonville Center
Tue 02:47:03 PM 32.3492 -80.8908 25° Northeast 423 487 35,000 -50 Level Jacksonville Center
Tue 02:48:03 PM 32.4567 -80.8294 26° Northeast 423 487 34,900  Descending Jacksonville Center
Tue 02:49:03 PM 32.5642 -80.7703 25° Northeast 423 487 35,000 50 Climbing Jacksonville Center
Tue 02:50:03 PM 32.6739 -80.7083 25° Northeast 423 487 35,000 -50 Level Jacksonville Center
Tue 02:51:03 PM 32.7814 -80.6517 24° Northeast 423 487 34,900 -50 Descending Jacksonville Center
Tue 02:52:03 PM 32.8889 -80.5894 26° Northeast 423 487 34,900 50 Level Jacksonville Center
Tue 02:53:03 PM 32.9983 -80.5297 25° Northeast 423 487 35,000 50 Climbing Jacksonville Center
Tue 02:54:03 PM 33.1058 -80.4722 24° Northeast 423 487 35,000  Level Jacksonville Center
Tue 02:55:03 PM 33.2256 -80.4044 25° Northeast 423 487 35,000  Level Jacksonville Center
Tue 02:56:03 PM 33.3328 -80.3419 26° Northeast 423 487 35,000 -50 Level Jacksonville Center
Tue 02:57:03 PM 33.4381 -80.2817 26° Northeast 423 487 34,900 -50 Descending Jacksonville Center
Tue 02:58:03 PM 33.5453 -80.2211 25° Northeast 423 487 34,900 50 Level Jacksonville Center
Tue 02:59:03 PM 33.6483 -80.1606 26° Northeast 418 481 35,000  Climbing Jacksonville Center
Tue 03:00:03 PM 33.7556 -80.0997 25° Northeast 418 481 34,900  Descending Jacksonville Center
Tue 03:01:36 PM 33.9064 -80.0128 26° Northeast 441 507 35,000 40 Climbing Washington Center
Tue 03:02:33 PM 34.0131 -79.9508 26° Northeast 430 495 35,000 -50 Level Washington Center
Tue 03:03:35 PM 34.1217 -79.8889 25° Northeast 425 489 34,900  Descending Washington Center
Tue 03:04:36 PM 34.2281 -79.8292 25° Northeast 418 481 35,000 50 Climbing Washington Center
Tue 03:05:36 PM 34.3367 -79.7669 25° Northeast 423 487 35,000  Level Washington Center
Tue 03:06:34 PM 34.4411 -79.7042 26° Northeast 423 487 35,000  Level Washington Center
Tue 03:07:35 PM 34.5478 -79.6414 26° Northeast 418 481 35,000  Level Washington Center
Tue 03:08:35 PM 34.6539 -79.5811 25° Northeast 418 481 35,000  Level Washington Center
Tue 03:09:36 PM 34.7603 -79.5206 25° Northeast 418 481 35,000  Level Washington Center
Tue 03:10:34 PM 34.8667 -79.4547 27° Northeast 413 475 35,000  Level Washington Center
Tue 03:11:34 PM 34.9731 -79.3939 25° Northeast 413 475 35,000  Level Washington Center
Tue 03:12:35 PM 35.0772 -79.3331 26° Northeast 413 475 35,000  Level Washington Center
Tue 03:13:36 PM 35.1686 -79.2786 26° Northeast 413 475 35,000  Level Washington Center
Tue 03:14:36 PM 35.2750 -79.2150 26° Northeast 413 475 35,000  Level Washington Center
Tue 03:15:34 PM 35.3939 -79.1464 25° Northeast 424 488 35,000  Level Washington Center
Tue 03:16:34 PM 35.4894 -79.0869 27° Northeast 424 488 35,000  Level Washington Center
Tue 03:17:35 PM 35.5914 -79.0300 24° Northeast 419 482 35,000 -629 Level Washington Center
Tue 03:18:38 PM 35.6975 -78.9631 27° Northeast 419 482 33,700 -1,140 Descending Washington Center
Tue 03:19:36 PM 35.8017 -78.9008 26° Northeast 414 476 32,700 -1,017 Descending Washington Center
Tue 03:20:36 PM 35.9078 -78.8361 26° Northeast 414 476 31,700 -1,008 Descending Washington Center
Tue 03:21:35 PM 36.0139 -78.7658 28° Northeast 414 476 30,700 -958 Descending Washington Center
Tue 03:22:35 PM 36.1178 -78.7058 25° Northeast 414 476 29,800 -942 Descending Washington Center
Tue 03:23:36 PM 36.2172 -78.6453 26° Northeast 408 470 28,800 -1,210 Descending Washington Center
Tue 03:24:34 PM 36.3169 -78.5847 26° Northeast 402 463 27,400 -915 Descending Washington Center
Tue 03:25:34 PM 36.4144 -78.5267 26° Northeast 391 450 27,000 -198 Descending Washington Center
Tue 03:26:35 PM 36.5097 -78.4656 27° Northeast 386 444 27,000  Level Washington Center
Tue 03:27:36 PM 36.6069 -78.4069 26° Northeast 386 444 27,000  Level Washington Center
Tue 03:28:34 PM 36.7131 -78.3383 27° Northeast 386 444 27,000  Level Washington Center
Tue 03:29:34 PM 36.8081 -78.2819 25° Northeast 386 444 27,000  Level Washington Center
Tue 03:30:35 PM 36.9056 -78.2206 27° Northeast 386 444 27,000  Level Washington Center
Tue 03:31:36 PM 36.9922 -78.1636 28° Northeast 386 444 27,000 -151 Level Washington Center
Tue 03:32:34 PM 37.0936 -78.1019 26° Northeast 374 430 26,700 -1,311 Descending Washington Center
Tue 03:33:35 PM 37.1867 -78.0450 26° Northeast 369 425 24,400 -1,328 Descending Washington Center
Tue 03:34:36 PM 37.2775 -77.9881 27° Northeast 369 425 24,000 -885 Descending Washington Center
Tue 03:35:37 PM 37.3642 -77.9331 27° Northeast 364 419 22,600 -1,008 Descending Washington Center
Tue 03:36:35 PM 37.4550 -77.8731 28° Northeast 364 419 22,000 -403 Descending Washington Center
Tue 03:37:36 PM 37.5436 -77.8181 26° Northeast 364 419 21,800 -1,041 Descending Washington Center
Tue 03:38:36 PM 37.6364 -77.7631 25° Northeast 359 413 19,900 -1,932 Descending Washington Center
Tue 03:39:34 PM 37.7250 -77.7131 24° Northeast 349 402 18,000 -1,815 Descending Washington Center
Tue 03:40:35 PM 37.8114 -77.6631 25° Northeast 344 396 16,300 -1,672 Descending Washington Center
Tue 03:41:36 PM 37.8956 -77.6128 25° Northeast 344 396 14,600 -1,736 Descending Washington Center
Tue 03:42:36 PM 37.9819 -77.5625 25° Northeast 339 390 12,800 -1,700 Descending Washington Center
Tue 03:43:36 PM 38.0661 -77.5169 23° Northeast 339 390 11,200 -1,424 Descending Washington Center
Tue 03:44:34 PM 38.1439 -77.4689 26° Northeast 328 377 10,000 -605 Descending Washington Center
Tue 03:45:35 PM 38.2133 -77.4283 25° Northeast 297 342 10,000 -197 Level Washington Center
Tue 03:46:36 PM 38.2850 -77.3906 22° Northeast 277 319 9,600 -807 Descending Washington Center
Tue 03:47:34 PM 38.3325 -77.4156 338° Northwest 236 272 8,400 -1,373 Descending Washington Center
Tue 03:48:34 PM 38.4133 -77.4519 341° North 236 272 6,900 -1,537 Descending Washington Center
Tue 03:49:35 PM 38.4864 -77.4483 North 249 287 5,300 -1,388 Descending Washington Center
Tue 03:50:35 PM 38.5614 -77.4475 360° North 256 295 4,100 -1,046 Descending Washington Center
Tue 03:51:24 PM 38.6333 -77.4500 358° North 265 305 3,400 -641 Descending Potomac TRACON
Tue 03:52:18 PM 38.6833 -77.4333 15° North 242 278 3,000 -211 Descending Potomac TRACON
Tue 03:53:18 PM 38.7500 -77.4333 360° North 225 259 3,000  Level Potomac TRACON

Login

Don't have an account? Register now (free) for customized features, flight alerts, and more!